sensor_id;sensor_type;location;lat;lon;timestamp;noise_LAeq;noise_LA_min;noise_LA_max;noise_LA01;noise_LA95
11999;Laerm;40817;51.520;9.954;2023-12-07T00:01:58;44.02;41.14;47.14;;
11999;Laerm;40817;51.520;9.954;2023-12-07T00:04:25;43.15;40.03;47.04;;
11999;Laerm;40817;51.520;9.954;2023-12-07T00:06:53;43.37;39.70;55.35;;
11999;Laerm;40817;51.520;9.954;2023-12-07T00:09:20;43.16;39.81;55.43;;
11999;Laerm;40817;51.520;9.954;2023-12-07T00:11:49;43.25;39.57;45.17;;
11999;Laerm;40817;51.520;9.954;2023-12-07T00:14:16;43.09;39.46;45.45;;
11999;Laerm;40817;51.520;9.954;2023-12-07T00:16:43;43.79;40.80;48.83;;
11999;Laerm;40817;51.520;9.954;2023-12-07T00:19:10;43.72;40.33;55.58;;
11999;Laerm;40817;51.520;9.954;2023-12-07T00:21:38;43.36;39.92;52.08;;
11999;Laerm;40817;51.520;9.954;2023-12-07T00:24:06;43.88;40.03;46.52;;
11999;Laerm;40817;51.520;9.954;2023-12-07T00:26:34;43.55;39.89;53.27;;
11999;Laerm;40817;51.520;9.954;2023-12-07T00:29:03;43.20;39.21;57.84;;
11999;Laerm;40817;51.520;9.954;2023-12-07T00:31:30;42.80;39.58;57.00;;
11999;Laerm;40817;51.520;9.954;2023-12-07T00:33:57;42.66;39.08;58.30;;
11999;Laerm;40817;51.520;9.954;2023-12-07T00:36:24;44.54;41.22;52.47;;
11999;Laerm;40817;51.520;9.954;2023-12-07T00:38:52;43.52;40.23;45.04;;
11999;Laerm;40817;51.520;9.954;2023-12-07T00:41:19;42.90;39.70;54.16;;
11999;Laerm;40817;51.520;9.954;2023-12-07T00:43:46;43.13;39.81;55.81;;
11999;Laerm;40817;51.520;9.954;2023-12-07T00:46:15;43.09;39.21;47.20;;
11999;Laerm;40817;51.520;9.954;2023-12-07T00:48:43;43.19;40.13;45.75;;
11999;Laerm;40817;51.520;9.954;2023-12-07T00:51:10;42.99;40.03;45.33;;
11999;Laerm;40817;51.520;9.954;2023-12-07T00:53:37;43.20;40.13;45.72;;
11999;Laerm;40817;51.520;9.954;2023-12-07T00:56:07;42.86;39.46;55.52;;
11999;Laerm;40817;51.520;9.954;2023-12-07T00:58:34;42.53;39.08;45.11;;
11999;Laerm;40817;51.520;9.954;2023-12-07T01:01:02;42.49;39.08;44.58;;
11999;Laerm;40817;51.520;9.954;2023-12-07T01:03:30;42.41;38.95;57.47;;
11999;Laerm;40817;51.520;9.954;2023-12-07T01:05:58;42.38;37.88;49.47;;
11999;Laerm;40817;51.520;9.954;2023-12-07T01:08:25;42.57;38.47;44.76;;
11999;Laerm;40817;51.520;9.954;2023-12-07T01:10:52;42.91;39.34;56.03;;
11999;Laerm;40817;51.520;9.954;2023-12-07T01:13:19;42.36;38.87;44.23;;
11999;Laerm;40817;51.520;9.954;2023-12-07T01:15:47;42.86;39.21;45.99;;
11999;Laerm;40817;51.520;9.954;2023-12-07T01:18:14;42.82;39.58;50.22;;
11999;Laerm;40817;51.520;9.954;2023-12-07T01:20:42;43.06;39.92;45.14;;
11999;Laerm;40817;51.520;9.954;2023-12-07T01:23:10;43.20;39.58;56.49;;
11999;Laerm;40817;51.520;9.954;2023-12-07T01:25:37;46.38;40.43;59.27;;
11999;Laerm;40817;51.520;9.954;2023-12-07T01:28:05;46.21;39.58;58.58;;
11999;Laerm;40817;51.520;9.954;2023-12-07T01:30:32;43.65;40.53;55.65;;
11999;Laerm;40817;51.520;9.954;2023-12-07T01:32:59;43.91;40.79;49.93;;
11999;Laerm;40817;51.520;9.954;2023-12-07T01:35:26;43.00;39.08;50.44;;
11999;Laerm;40817;51.520;9.954;2023-12-07T01:37:56;43.09;40.27;56.80;;
11999;Laerm;40817;51.520;9.954;2023-12-07T01:40:23;42.67;39.58;44.87;;
11999;Laerm;40817;51.520;9.954;2023-12-07T01:42:51;42.95;40.03;45.17;;
11999;Laerm;40817;51.520;9.954;2023-12-07T01:45:19;42.58;39.70;44.35;;
11999;Laerm;40817;51.520;9.954;2023-12-07T01:47:48;42.88;39.46;54.73;;
11999;Laerm;40817;51.520;9.954;2023-12-07T01:50:17;42.74;38.67;44.69;;
11999;Laerm;40817;51.520;9.954;2023-12-07T01:52:57;42.88;39.81;44.80;;
11999;Laerm;40817;51.520;9.954;2023-12-07T01:55:27;42.78;39.81;55.48;;
11999;Laerm;40817;51.520;9.954;2023-12-07T01:57:56;42.56;39.08;44.58;;
11999;Laerm;40817;51.520;9.954;2023-12-07T02:00:23;42.26;38.21;44.58;;
11999;Laerm;40817;51.520;9.954;2023-12-07T02:02:52;42.64;38.95;44.54;;
11999;Laerm;40817;51.520;9.954;2023-12-07T02:05:19;45.96;39.08;66.45;;
11999;Laerm;40817;51.520;9.954;2023-12-07T02:07:47;43.35;39.08;55.77;;
11999;Laerm;40817;51.520;9.954;2023-12-07T02:10:17;43.30;39.92;45.36;;
11999;Laerm;40817;51.520;9.954;2023-12-07T02:12:45;43.24;39.70;57.73;;
11999;Laerm;40817;51.520;9.954;2023-12-07T02:15:12;42.79;39.34;44.59;;
11999;Laerm;40817;51.520;9.954;2023-12-07T02:17:50;42.85;39.70;50.14;;
11999;Laerm;40817;51.520;9.954;2023-12-07T02:20:28;43.09;39.08;49.02;;
11999;Laerm;40817;51.520;9.954;2023-12-07T02:23:01;42.82;39.58;57.33;;
11999;Laerm;40817;51.520;9.954;2023-12-07T02:25:36;43.72;40.36;58.33;;
11999;Laerm;40817;51.520;9.954;2023-12-07T02:28:09;43.53;39.34;45.69;;
11999;Laerm;40817;51.520;9.954;2023-12-07T02:30:36;43.20;39.08;45.91;;
11999;Laerm;40817;51.520;9.954;2023-12-07T02:33:03;42.66;39.21;45.54;;
11999;Laerm;40817;51.520;9.954;2023-12-07T02:35:34;43.28;39.70;54.21;;
11999;Laerm;40817;51.520;9.954;2023-12-07T02:38:03;43.12;40.13;45.04;;
11999;Laerm;40817;51.520;9.954;2023-12-07T02:40:31;42.65;39.21;57.40;;
11999;Laerm;40817;51.520;9.954;2023-12-07T02:43:00;43.07;40.13;44.94;;
11999;Laerm;40817;51.520;9.954;2023-12-07T02:45:31;42.79;39.92;58.37;;
11999;Laerm;40817;51.520;9.954;2023-12-07T02:47:58;42.65;38.95;44.65;;
11999;Laerm;40817;51.520;9.954;2023-12-07T02:50:26;51.33;39.46;65.89;;
11999;Laerm;40817;51.520;9.954;2023-12-07T02:52:53;44.10;40.80;51.63;;
11999;Laerm;40817;51.520;9.954;2023-12-07T02:55:22;43.46;40.43;57.61;;
11999;Laerm;40817;51.520;9.954;2023-12-07T02:57:49;43.02;39.58;45.27;;
11999;Laerm;40817;51.520;9.954;2023-12-07T03:00:18;42.72;39.08;45.17;;
11999;Laerm;40817;51.520;9.954;2023-12-07T03:02:48;42.36;38.81;49.75;;
11999;Laerm;40817;51.520;9.954;2023-12-07T03:05:17;42.66;39.08;45.60;;
11999;Laerm;40817;51.520;9.954;2023-12-07T03:07:45;42.97;39.81;59.41;;
11999;Laerm;40817;51.520;9.954;2023-12-07T03:10:13;45.62;40.63;61.49;;
11999;Laerm;40817;51.520;9.954;2023-12-07T03:12:40;43.47;40.71;57.49;;
11999;Laerm;40817;51.520;9.954;2023-12-07T03:15:08;43.62;40.43;48.31;;
11999;Laerm;40817;51.520;9.954;2023-12-07T03:17:36;49.61;39.34;63.99;;
11999;Laerm;40817;51.520;9.954;2023-12-07T03:20:07;47.23;39.70;64.15;;
11999;Laerm;40817;51.520;9.954;2023-12-07T03:22:36;44.04;40.53;54.37;;
11999;Laerm;40817;51.520;9.954;2023-12-07T03:25:04;43.03;39.21;45.42;;
11999;Laerm;40817;51.520;9.954;2023-12-07T03:27:31;42.67;39.21;45.30;;
11999;Laerm;40817;51.520;9.954;2023-12-07T03:29:59;42.60;39.21;56.36;;
11999;Laerm;40817;51.520;9.954;2023-12-07T03:32:26;42.91;39.34;57.07;;
11999;Laerm;40817;51.520;9.954;2023-12-07T03:34:53;42.47;39.08;54.04;;
11999;Laerm;40817;51.520;9.954;2023-12-07T03:37:22;42.59;38.95;44.94;;
11999;Laerm;40817;51.520;9.954;2023-12-07T03:39:49;42.90;39.89;45.30;;
11999;Laerm;40817;51.520;9.954;2023-12-07T03:42:17;43.16;39.81;49.27;;
11999;Laerm;40817;51.520;9.954;2023-12-07T03:44:44;42.94;39.23;46.13;;
11999;Laerm;40817;51.520;9.954;2023-12-07T03:47:11;42.93;39.92;58.85;;
11999;Laerm;40817;51.520;9.954;2023-12-07T03:49:39;43.71;40.62;56.42;;
11999;Laerm;40817;51.520;9.954;2023-12-07T03:52:07;42.90;38.67;45.45;;
11999;Laerm;40817;51.520;9.954;2023-12-07T03:54:35;44.45;39.81;50.91;;
11999;Laerm;40817;51.520;9.954;2023-12-07T03:57:04;44.21;41.46;47.65;;
11999;Laerm;40817;51.520;9.954;2023-12-07T03:59:31;43.40;39.92;50.87;;
11999;Laerm;40817;51.520;9.954;2023-12-07T04:01:59;43.08;39.70;45.42;;
11999;Laerm;40817;51.520;9.954;2023-12-07T04:04:26;42.56;38.95;44.83;;
11999;Laerm;40817;51.520;9.954;2023-12-07T04:06:53;42.82;38.95;45.14;;
11999;Laerm;40817;51.520;9.954;2023-12-07T04:09:21;44.43;40.03;57.62;;
11999;Laerm;40817;51.520;9.954;2023-12-07T04:11:49;42.87;38.95;53.00;;
11999;Laerm;40817;51.520;9.954;2023-12-07T04:14:16;43.31;40.03;59.17;;
11999;Laerm;40817;51.520;9.954;2023-12-07T04:16:44;43.63;40.33;46.18;;
11999;Laerm;40817;51.520;9.954;2023-12-07T04:19:11;43.33;40.33;45.11;;
11999;Laerm;40817;51.520;9.954;2023-12-07T04:21:38;43.45;40.23;45.39;;
11999;Laerm;40817;51.520;9.954;2023-12-07T04:24:06;43.31;40.03;45.04;;
11999;Laerm;40817;51.520;9.954;2023-12-07T04:26:33;43.31;40.13;46.48;;
11999;Laerm;40817;51.520;9.954;2023-12-07T04:29:02;43.36;40.13;45.23;;
11999;Laerm;40817;51.520;9.954;2023-12-07T04:31:29;43.44;40.33;58.01;;
11999;Laerm;40817;51.520;9.954;2023-12-07T04:33:56;43.46;40.13;54.04;;
11999;Laerm;40817;51.520;9.954;2023-12-07T04:36:25;43.35;40.33;45.07;;
11999;Laerm;40817;51.520;9.954;2023-12-07T04:38:52;43.61;40.80;46.76;;
11999;Laerm;40817;51.520;9.954;2023-12-07T04:41:19;43.17;40.03;59.31;;
11999;Laerm;40817;51.520;9.954;2023-12-07T04:43:47;43.43;39.92;45.36;;
11999;Laerm;40817;51.520;9.954;2023-12-07T04:46:15;43.94;40.89;46.13;;
11999;Laerm;40817;51.520;9.954;2023-12-07T04:48:43;43.99;40.89;45.94;;
11999;Laerm;40817;51.520;9.954;2023-12-07T04:51:10;44.00;40.71;57.88;;
11999;Laerm;40817;51.520;9.954;2023-12-07T04:53:37;43.61;40.98;45.48;;
11999;Laerm;40817;51.520;9.954;2023-12-07T04:56:06;44.34;41.46;53.14;;
11999;Laerm;40817;51.520;9.954;2023-12-07T04:58:34;43.81;40.62;46.02;;
11999;Laerm;40817;51.520;9.954;2023-12-07T05:01:01;46.78;41.22;58.18;;
11999;Laerm;40817;51.520;9.954;2023-12-07T05:03:32;45.57;40.71;56.74;;
11999;Laerm;40817;51.520;9.954;2023-12-07T05:05:59;43.54;40.43;45.42;;
11999;Laerm;40817;51.520;9.954;2023-12-07T05:08:26;43.86;41.38;49.34;;
11999;Laerm;40817;51.520;9.954;2023-12-07T05:10:54;43.95;40.80;50.58;;
11999;Laerm;40817;51.520;9.954;2023-12-07T05:13:21;43.81;41.22;45.57;;
11999;Laerm;40817;51.520;9.954;2023-12-07T05:15:48;43.35;40.23;46.69;;
11999;Laerm;40817;51.520;9.954;2023-12-07T05:18:15;43.28;40.53;45.30;;
11999;Laerm;40817;51.520;9.954;2023-12-07T05:20:44;43.45;40.53;45.14;;
11999;Laerm;40817;51.520;9.954;2023-12-07T05:23:11;43.66;40.23;45.48;;
11999;Laerm;40817;51.520;9.954;2023-12-07T05:25:39;43.80;41.14;45.43;;
11999;Laerm;40817;51.520;9.954;2023-12-07T05:28:06;43.74;40.23;47.02;;
11999;Laerm;40817;51.520;9.954;2023-12-07T05:30:33;43.74;40.89;48.39;;
11999;Laerm;40817;51.520;9.954;2023-12-07T05:33:01;44.00;41.14;53.37;;
11999;Laerm;40817;51.520;9.954;2023-12-07T05:35:28;43.77;41.30;59.15;;
11999;Laerm;40817;51.520;9.954;2023-12-07T05:37:56;44.35;41.38;46.34;;
11999;Laerm;40817;51.520;9.954;2023-12-07T05:40:24;44.19;41.61;46.71;;
11999;Laerm;40817;51.520;9.954;2023-12-07T05:42:52;44.34;40.45;47.36;;
11999;Laerm;40817;51.520;9.954;2023-12-07T05:45:19;44.00;39.92;51.89;;
11999;Laerm;40817;51.520;9.954;2023-12-07T05:47:46;44.23;40.43;49.29;;
11999;Laerm;40817;51.520;9.954;2023-12-07T05:50:14;44.26;41.06;54.14;;
11999;Laerm;40817;51.520;9.954;2023-12-07T05:52:41;45.16;41.30;55.40;;
11999;Laerm;40817;51.520;9.954;2023-12-07T05:55:10;43.93;40.13;49.52;;
11999;Laerm;40817;51.520;9.954;2023-12-07T05:57:38;43.70;41.06;47.00;;
11999;Laerm;40817;51.520;9.954;2023-12-07T06:00:07;43.73;40.03;45.42;;
11999;Laerm;40817;51.520;9.954;2023-12-07T06:02:35;43.96;40.13;59.31;;
11999;Laerm;40817;51.520;9.954;2023-12-07T06:05:03;43.91;40.80;50.37;;
11999;Laerm;40817;51.520;9.954;2023-12-07T06:07:31;44.06;41.30;50.56;;
11999;Laerm;40817;51.520;9.954;2023-12-07T06:09:59;44.31;40.62;50.31;;
11999;Laerm;40817;51.520;9.954;2023-12-07T06:12:27;44.23;41.46;49.20;;
11999;Laerm;40817;51.520;9.954;2023-12-07T06:14:54;44.54;41.82;49.28;;
11999;Laerm;40817;51.520;9.954;2023-12-07T06:17:22;44.18;41.30;52.17;;
11999;Laerm;40817;51.520;9.954;2023-12-07T06:19:49;44.06;40.80;51.37;;
11999;Laerm;40817;51.520;9.954;2023-12-07T06:22:16;44.05;40.43;59.33;;
11999;Laerm;40817;51.520;9.954;2023-12-07T06:24:43;44.68;40.62;57.17;;
11999;Laerm;40817;51.520;9.954;2023-12-07T06:27:11;44.72;40.62;63.74;;
11999;Laerm;40817;51.520;9.954;2023-12-07T06:29:40;46.66;41.06;62.34;;
11999;Laerm;40817;51.520;9.954;2023-12-07T06:32:07;45.13;41.46;57.67;;
11999;Laerm;40817;51.520;9.954;2023-12-07T06:34:39;45.04;41.22;58.94;;
11999;Laerm;40817;51.520;9.954;2023-12-07T06:37:06;45.11;41.46;57.22;;
11999;Laerm;40817;51.520;9.954;2023-12-07T06:39:33;47.87;39.81;74.68;;
11999;Laerm;40817;51.520;9.954;2023-12-07T06:42:00;44.60;41.38;59.75;;
11999;Laerm;40817;51.520;9.954;2023-12-07T06:44:28;46.38;41.61;59.79;;
11999;Laerm;40817;51.520;9.954;2023-12-07T06:46:56;44.91;41.06;56.31;;
11999;Laerm;40817;51.520;9.954;2023-12-07T06:49:24;44.41;41.14;52.27;;
11999;Laerm;40817;51.520;9.954;2023-12-07T06:51:51;44.15;41.30;49.35;;
11999;Laerm;40817;51.520;9.954;2023-12-07T06:54:18;59.92;41.38;69.79;;
11999;Laerm;40817;51.520;9.954;2023-12-07T06:56:45;44.18;40.33;56.65;;
11999;Laerm;40817;51.520;9.954;2023-12-07T06:59:13;45.03;41.61;56.87;;
11999;Laerm;40817;51.520;9.954;2023-12-07T07:01:40;44.59;41.96;52.56;;
11999;Laerm;40817;51.520;9.954;2023-12-07T07:04:09;45.63;41.53;72.75;;
11999;Laerm;40817;51.520;9.954;2023-12-07T07:06:38;44.76;40.43;60.07;;
11999;Laerm;40817;51.520;9.954;2023-12-07T07:09:05;44.72;41.26;62.40;;
11999;Laerm;40817;51.520;9.954;2023-12-07T07:11:32;44.85;40.80;60.48;;
11999;Laerm;40817;51.520;9.954;2023-12-07T07:14:00;44.63;41.89;54.52;;
11999;Laerm;40817;51.520;9.954;2023-12-07T07:16:27;44.12;40.03;47.55;;
11999;Laerm;40817;51.520;9.954;2023-12-07T07:18:55;44.35;41.68;58.06;;
11999;Laerm;40817;51.520;9.954;2023-12-07T07:21:23;44.07;41.22;51.18;;
11999;Laerm;40817;51.520;9.954;2023-12-07T07:23:50;44.13;41.14;45.97;;
11999;Laerm;40817;51.520;9.954;2023-12-07T07:26:18;44.63;41.89;61.93;;
11999;Laerm;40817;51.520;9.954;2023-12-07T07:28:45;44.45;41.22;48.98;;
11999;Laerm;40817;51.520;9.954;2023-12-07T07:31:12;49.18;42.53;74.25;;
11999;Laerm;40817;51.520;9.954;2023-12-07T07:33:40;45.74;41.82;71.89;;
11999;Laerm;40817;51.520;9.954;2023-12-07T07:36:08;44.15;41.53;51.26;;
11999;Laerm;40817;51.520;9.954;2023-12-07T07:38:38;45.92;41.30;61.96;;
11999;Laerm;40817;51.520;9.954;2023-12-07T07:41:06;46.78;42.29;55.89;;
11999;Laerm;40817;51.520;9.954;2023-12-07T07:43:33;45.43;42.16;66.29;;
11999;Laerm;40817;51.520;9.954;2023-12-07T07:46:01;47.98;41.82;71.78;;
11999;Laerm;40817;51.520;9.954;2023-12-07T07:48:48;44.96;41.46;60.45;;
11999;Laerm;40817;51.520;9.954;2023-12-07T07:51:28;44.57;41.53;50.57;;
11999;Laerm;40817;51.520;9.954;2023-12-07T07:53:57;44.43;41.53;58.53;;
11999;Laerm;40817;51.520;9.954;2023-12-07T07:56:24;44.16;40.80;56.32;;
11999;Laerm;40817;51.520;9.954;2023-12-07T07:58:51;44.54;41.06;55.96;;
11999;Laerm;40817;51.520;9.954;2023-12-07T08:01:19;44.78;41.38;60.50;;
11999;Laerm;40817;51.520;9.954;2023-12-07T08:03:46;45.54;42.47;55.07;;
11999;Laerm;40817;51.520;9.954;2023-12-07T08:06:13;45.00;41.82;51.44;;
11999;Laerm;40817;51.520;9.954;2023-12-07T08:08:40;45.28;42.53;62.68;;
11999;Laerm;40817;51.520;9.954;2023-12-07T08:11:09;45.51;41.68;52.97;;
11999;Laerm;40817;51.520;9.954;2023-12-07T08:13:36;44.41;41.68;52.84;;
11999;Laerm;40817;51.520;9.954;2023-12-07T08:16:08;45.39;42.22;64.35;;
11999;Laerm;40817;51.520;9.954;2023-12-07T08:18:35;45.42;41.61;61.87;;
11999;Laerm;40817;51.520;9.954;2023-12-07T08:21:04;45.01;41.89;51.86;;
11999;Laerm;40817;51.520;9.954;2023-12-07T08:23:34;45.50;42.35;51.52;;
11999;Laerm;40817;51.520;9.954;2023-12-07T08:26:02;44.27;41.06;48.21;;
11999;Laerm;40817;51.520;9.954;2023-12-07T08:28:30;44.49;39.34;51.56;;
11999;Laerm;40817;51.520;9.954;2023-12-07T08:30:58;45.06;41.14;56.48;;
11999;Laerm;40817;51.520;9.954;2023-12-07T08:33:25;43.95;40.80;54.20;;
11999;Laerm;40817;51.520;9.954;2023-12-07T08:35:52;44.62;40.53;52.62;;
11999;Laerm;40817;51.520;9.954;2023-12-07T08:38:21;44.11;39.81;63.45;;
11999;Laerm;40817;51.520;9.954;2023-12-07T08:40:49;44.12;38.95;61.00;;
11999;Laerm;40817;51.520;9.954;2023-12-07T08:43:18;44.13;40.23;54.91;;
11999;Laerm;40817;51.520;9.954;2023-12-07T08:45:46;44.15;41.14;53.24;;
11999;Laerm;40817;51.520;9.954;2023-12-07T08:48:14;45.14;41.06;58.02;;
11999;Laerm;40817;51.520;9.954;2023-12-07T08:50:41;44.38;41.22;56.40;;
11999;Laerm;40817;51.520;9.954;2023-12-07T08:53:09;44.01;40.23;57.72;;
11999;Laerm;40817;51.520;9.954;2023-12-07T08:55:36;44.39;40.89;52.04;;
11999;Laerm;40817;51.520;9.954;2023-12-07T08:58:03;44.70;42.09;54.57;;
11999;Laerm;40817;51.520;9.954;2023-12-07T09:00:31;44.50;41.06;59.05;;
11999;Laerm;40817;51.520;9.954;2023-12-07T09:03:00;43.96;40.13;54.12;;
11999;Laerm;40817;51.520;9.954;2023-12-07T09:05:28;43.92;41.14;54.11;;
11999;Laerm;40817;51.520;9.954;2023-12-07T09:07:56;44.57;41.46;59.80;;
11999;Laerm;40817;51.520;9.954;2023-12-07T09:10:23;44.30;41.89;49.34;;
11999;Laerm;40817;51.520;9.954;2023-12-07T09:12:50;44.47;41.46;49.10;;
11999;Laerm;40817;51.520;9.954;2023-12-07T09:15:18;44.09;40.80;58.42;;
11999;Laerm;40817;51.520;9.954;2023-12-07T09:17:45;44.21;41.03;50.85;;
11999;Laerm;40817;51.520;9.954;2023-12-07T09:20:16;44.79;42.03;61.09;;
11999;Laerm;40817;51.520;9.954;2023-12-07T09:22:45;44.36;40.33;60.32;;
11999;Laerm;40817;51.520;9.954;2023-12-07T09:25:13;44.84;41.06;59.88;;
11999;Laerm;40817;51.520;9.954;2023-12-07T09:27:40;45.06;40.98;62.26;;
11999;Laerm;40817;51.520;9.954;2023-12-07T09:30:10;44.42;38.95;51.11;;
11999;Laerm;40817;51.520;9.954;2023-12-07T09:32:38;44.12;41.22;55.97;;
11999;Laerm;40817;51.520;9.954;2023-12-07T09:35:08;43.82;40.13;46.23;;
11999;Laerm;40817;51.520;9.954;2023-12-07T09:37:42;43.95;40.03;46.71;;
11999;Laerm;40817;51.520;9.954;2023-12-07T09:40:15;45.47;40.53;56.07;;
11999;Laerm;40817;51.520;9.954;2023-12-07T09:42:44;44.59;41.19;53.63;;
11999;Laerm;40817;51.520;9.954;2023-12-07T09:45:12;45.55;41.82;64.50;;
11999;Laerm;40817;51.520;9.954;2023-12-07T09:47:40;44.95;41.38;53.75;;
11999;Laerm;40817;51.520;9.954;2023-12-07T09:50:09;44.39;41.38;52.48;;
11999;Laerm;40817;51.520;9.954;2023-12-07T09:52:38;44.58;41.06;53.25;;
11999;Laerm;40817;51.520;9.954;2023-12-07T09:55:08;44.11;40.71;54.57;;
11999;Laerm;40817;51.520;9.954;2023-12-07T09:57:37;44.15;40.89;56.55;;
11999;Laerm;40817;51.520;9.954;2023-12-07T10:00:07;43.76;40.13;49.90;;
11999;Laerm;40817;51.520;9.954;2023-12-07T10:02:37;43.86;41.06;47.86;;
11999;Laerm;40817;51.520;9.954;2023-12-07T10:05:06;43.86;40.62;48.28;;
11999;Laerm;40817;51.520;9.954;2023-12-07T10:07:39;44.13;41.14;50.18;;
11999;Laerm;40817;51.520;9.954;2023-12-07T10:10:10;43.69;39.46;46.02;;
11999;Laerm;40817;51.520;9.954;2023-12-07T10:12:46;43.99;40.98;46.78;;
11999;Laerm;40817;51.520;9.954;2023-12-07T10:15:16;43.87;40.23;49.57;;
11999;Laerm;40817;51.520;9.954;2023-12-07T10:17:48;43.86;40.23;60.26;;
11999;Laerm;40817;51.520;9.954;2023-12-07T10:20:17;44.78;40.53;67.05;;
11999;Laerm;40817;51.520;9.954;2023-12-07T10:22:46;44.30;40.27;59.77;;
11999;Laerm;40817;51.520;9.954;2023-12-07T10:25:15;46.51;40.71;58.49;;
11999;Laerm;40817;51.520;9.954;2023-12-07T10:27:42;43.90;39.70;55.48;;
11999;Laerm;40817;51.520;9.954;2023-12-07T10:30:11;44.30;38.52;56.44;;
11999;Laerm;40817;51.520;9.954;2023-12-07T10:32:39;43.41;39.21;48.36;;
11999;Laerm;40817;51.520;9.954;2023-12-07T10:35:08;43.82;40.23;53.32;;
11999;Laerm;40817;51.520;9.954;2023-12-07T10:37:36;44.89;40.62;62.65;;
11999;Laerm;40817;51.520;9.954;2023-12-07T10:40:06;45.00;39.34;57.71;;
11999;Laerm;40817;51.520;9.954;2023-12-07T10:42:35;45.16;40.23;59.93;;
11999;Laerm;40817;51.520;9.954;2023-12-07T10:45:07;43.51;37.88;46.28;;
11999;Laerm;40817;51.520;9.954;2023-12-07T10:47:38;43.30;39.81;52.00;;
11999;Laerm;40817;51.520;9.954;2023-12-07T10:50:08;43.28;39.70;45.36;;
11999;Laerm;40817;51.520;9.954;2023-12-07T10:52:43;43.21;40.03;53.67;;
11999;Laerm;40817;51.520;9.954;2023-12-07T10:55:17;43.38;40.33;48.78;;
11999;Laerm;40817;51.520;9.954;2023-12-07T10:57:48;43.50;39.58;49.67;;
11999;Laerm;40817;51.520;9.954;2023-12-07T11:00:16;47.45;40.23;60.56;;
11999;Laerm;40817;51.520;9.954;2023-12-07T11:02:45;54.60;44.90;62.44;;
11999;Laerm;40817;51.520;9.954;2023-12-07T11:05:13;44.12;40.08;62.50;;
11999;Laerm;40817;51.520;9.954;2023-12-07T11:07:55;43.40;39.08;46.52;;
11999;Laerm;40817;51.520;9.954;2023-12-07T11:10:31;43.93;40.23;57.54;;
11999;Laerm;40817;51.520;9.954;2023-12-07T11:13:15;43.65;39.21;50.55;;
11999;Laerm;40817;51.520;9.954;2023-12-07T11:15:44;43.42;38.37;47.22;;
11999;Laerm;40817;51.520;9.954;2023-12-07T11:18:12;43.98;40.33;56.91;;
11999;Laerm;40817;51.520;9.954;2023-12-07T11:20:42;43.92;40.03;48.39;;
11999;Laerm;40817;51.520;9.954;2023-12-07T11:23:10;43.76;38.67;54.02;;
11999;Laerm;40817;51.520;9.954;2023-12-07T11:25:38;44.47;40.03;54.88;;
11999;Laerm;40817;51.520;9.954;2023-12-07T11:28:07;45.73;40.53;55.32;;
11999;Laerm;40817;51.520;9.954;2023-12-07T11:30:37;43.88;40.03;47.86;;
11999;Laerm;40817;51.520;9.954;2023-12-07T11:33:07;44.77;38.95;66.55;;
11999;Laerm;40817;51.520;9.954;2023-12-07T11:36:06;43.66;39.92;51.22;;
11999;Laerm;40817;51.520;9.954;2023-12-07T11:38:35;44.09;39.70;46.84;;
11999;Laerm;40817;51.520;9.954;2023-12-07T11:41:03;43.68;39.34;49.65;;
11999;Laerm;40817;51.520;9.954;2023-12-07T11:43:41;47.68;40.43;62.32;;
11999;Laerm;40817;51.520;9.954;2023-12-07T11:46:12;43.89;40.23;53.96;;
11999;Laerm;40817;51.520;9.954;2023-12-07T11:48:47;43.77;39.57;48.16;;
11999;Laerm;40817;51.520;9.954;2023-12-07T11:51:16;43.31;36.91;49.18;;
11999;Laerm;40817;51.520;9.954;2023-12-07T11:53:44;43.04;39.58;45.36;;
11999;Laerm;40817;51.520;9.954;2023-12-07T11:56:11;43.25;39.46;45.91;;
11999;Laerm;40817;51.520;9.954;2023-12-07T11:58:41;47.09;41.06;58.05;;
11999;Laerm;40817;51.520;9.954;2023-12-07T12:01:08;43.45;40.43;51.24;;
11999;Laerm;40817;51.520;9.954;2023-12-07T12:03:35;43.19;38.95;45.60;;
11999;Laerm;40817;51.520;9.954;2023-12-07T12:06:06;43.23;39.70;49.28;;
11999;Laerm;40817;51.520;9.954;2023-12-07T12:08:36;43.63;40.33;47.02;;
11999;Laerm;40817;51.520;9.954;2023-12-07T12:11:04;43.77;39.81;67.42;;
11999;Laerm;40817;51.520;9.954;2023-12-07T12:13:36;43.35;39.46;53.32;;
11999;Laerm;40817;51.520;9.954;2023-12-07T12:16:07;43.75;38.95;56.37;;
11999;Laerm;40817;51.520;9.954;2023-12-07T12:18:34;43.04;38.21;57.38;;
11999;Laerm;40817;51.520;9.954;2023-12-07T12:21:02;43.19;37.32;53.32;;
11999;Laerm;40817;51.520;9.954;2023-12-07T12:23:29;43.33;37.88;50.70;;
11999;Laerm;40817;51.520;9.954;2023-12-07T12:25:57;52.64;42.29;65.52;;
11999;Laerm;40817;51.520;9.954;2023-12-07T12:28:25;43.14;39.34;49.88;;
11999;Laerm;40817;51.520;9.954;2023-12-07T12:30:52;43.71;40.03;56.57;;
11999;Laerm;40817;51.520;9.954;2023-12-07T12:33:21;43.19;40.03;57.16;;
11999;Laerm;40817;51.520;9.954;2023-12-07T12:36:06;42.92;37.88;50.48;;
11999;Laerm;40817;51.520;9.954;2023-12-07T12:38:34;43.08;38.21;48.71;;
11999;Laerm;40817;51.520;9.954;2023-12-07T12:41:01;43.18;39.46;55.98;;
11999;Laerm;40817;51.520;9.954;2023-12-07T12:43:31;43.32;38.05;53.47;;
11999;Laerm;40817;51.520;9.954;2023-12-07T12:45:58;42.78;37.70;56.77;;
11999;Laerm;40817;51.520;9.954;2023-12-07T12:48:27;42.81;39.08;53.07;;
11999;Laerm;40817;51.520;9.954;2023-12-07T12:50:54;43.42;38.37;52.32;;
11999;Laerm;40817;51.520;9.954;2023-12-07T12:53:22;42.52;37.70;57.85;;
11999;Laerm;40817;51.520;9.954;2023-12-07T12:55:51;42.72;37.12;50.85;;
11999;Laerm;40817;51.520;9.954;2023-12-07T12:58:19;47.23;37.88;69.58;;
11999;Laerm;40817;51.520;9.954;2023-12-07T13:00:48;41.63;37.52;47.14;;
11999;Laerm;40817;51.520;9.954;2023-12-07T13:03:15;41.94;38.05;51.91;;
11999;Laerm;40817;51.520;9.954;2023-12-07T13:05:44;42.79;38.37;54.45;;
11999;Laerm;40817;51.520;9.954;2023-12-07T13:08:14;42.57;38.52;50.28;;
11999;Laerm;40817;51.520;9.954;2023-12-07T13:10:41;42.22;38.67;45.07;;
11999;Laerm;40817;51.520;9.954;2023-12-07T13:13:08;42.97;37.87;48.54;;
11999;Laerm;40817;51.520;9.954;2023-12-07T13:15:37;43.89;39.92;57.35;;
11999;Laerm;40817;51.520;9.954;2023-12-07T13:18:04;42.78;39.08;55.98;;
11999;Laerm;40817;51.520;9.954;2023-12-07T13:20:32;43.10;38.67;46.25;;
11999;Laerm;40817;51.520;9.954;2023-12-07T13:23:01;43.47;39.46;46.82;;
11999;Laerm;40817;51.520;9.954;2023-12-07T13:25:29;43.45;40.71;57.74;;
11999;Laerm;40817;51.520;9.954;2023-12-07T13:27:56;43.62;40.43;50.54;;
11999;Laerm;40817;51.520;9.954;2023-12-07T13:30:24;43.79;40.53;49.98;;
11999;Laerm;40817;51.520;9.954;2023-12-07T13:32:55;52.20;40.98;67.26;;
11999;Laerm;40817;51.520;9.954;2023-12-07T13:35:22;43.60;39.08;49.30;;
11999;Laerm;40817;51.520;9.954;2023-12-07T13:37:50;43.89;38.95;54.06;;
11999;Laerm;40817;51.520;9.954;2023-12-07T13:40:19;43.72;40.33;49.32;;
11999;Laerm;40817;51.520;9.954;2023-12-07T13:42:47;44.03;40.98;50.91;;
11999;Laerm;40817;51.520;9.954;2023-12-07T13:45:14;51.53;42.22;63.45;;
11999;Laerm;40817;51.520;9.954;2023-12-07T13:47:42;50.19;42.82;63.03;;
11999;Laerm;40817;51.520;9.954;2023-12-07T13:50:10;53.84;43.19;66.97;;
11999;Laerm;40817;51.520;9.954;2023-12-07T13:52:38;51.35;40.71;67.13;;